עמוד ראשי
METAR-TAF:

שדות תעופה :

שטוטגרט, גרמניה

קו רוחב: 48-41N, קו אורך: 009-13E, גובה: 396מטר

תצפית מזג אוויר נוכחית

הדו"ח נערך לפני 24דקות, בשעה 20:20 UTC
רוח 6קשר מכיוון מערב/צפון-מערב
טמפרטורת 25 צלסיוס
לחות 57%
לחץ 1017 hPa
ראות 10 קילומטר או יותר
ללא עננים שבסיסם נמוך מ 5000 רגל או קומולונימבוס

METAR: EDDS 282020Z 30006KT CAVOK 25/16 Q1017

זמן: 22:44 (20:44 UTC)

תחזית

הדו"ח נערך לפני 3 שעות ו 44דקות, בשעה 17:00 UTC
תחזית בתוקף מ 28 ב 18 UTC עד 29 ב 18 UTC
רוח 7קשר מכיוון מערב/צפון-מערב
ראות 10 קילומטר או יותר
מעט עננים בגובה 4500רגל
זמנית מ -
28 ב 18 UTC עד 29 ב 01 UTC
רוח 15קשר מכיוון מערב/צפון-מערב עם משבים עד 25קשר
עננים פזורים בגובה 3500רגל , קומולונימבוס.
סופת רעמים, גשם
יעשה מ
28 ב 20 UTC עד 28 ב 22 UTC
רוח 4קשר מכיוון דרום-מערב
יעשה מ
29 ב 12 UTC עד 29 ב 14 UTC
רוח 8קשר מכיוון מערב/צפון-מערב

TAF: EDDS 281700Z 2818/2918 29007KT 9999 FEW045 TEMPO 2818/2901 30015G25KT TSRA SCT035CB BECMG 2820/2822 23004KT BECMG 2912/2914 30008KT

METAR-TAF

תצפיות ותחזיות מזג אוויר לגבי יותר מ- 4,000 שדות תעופה ברחבי העולם. דוחות METAR ו- TAF.

התחנות הזמינות מסומנות בנקודות צהובות ואדומות על גבי המפה.

העבר את העכבר לנקודה הצבעונית על מנת לראות את שם התחנה.

לאחר מכן, לחץ כדי לראות את תוכן ואת תחזיות מזג האוויר.

כדי לשנות את המפה: לחץ על הכפתורים הירוקים עם הפלוס השחור כדי להתקרב; על הכפתור הירוק עם המקף כדי להתרחק; או בחיצים הירוקים למפות סמוכות.


METAR-TAF: